Time;durP1;ratioP1;P1;durP2;ratioP2;P2;SDS_P1;SDS_P2;PMS_P1;PMS_P2;Temp;Humidity;BMP_temperature;BMP_pressure;BME280_temperature;BME280_humidity;BME280_pressure;Samples;Min_cycle;Max_cycle;Signal;HPM_P1;HPM_P2
2021/05/18 00:01:55;;;;;;;2.05;0.85;;;13.20;90.50;;;;;;5012051;28;20044;-77
2021/05/18 00:04:21;;;;;;;0.57;0.57;;;13.10;90.60;;;;;;5018711;28;20045;-78
2021/05/18 00:06:48;;;;;;;0.98;0.77;;;13.10;90.60;;;;;;5002519;28;20376;-78
2021/05/18 00:11:57;;;;;;;0.80;0.57;;;13.10;90.90;;;;;;4999821;28;20046;-77
2021/05/18 00:14:25;;;;;;;1.10;0.60;;;13.10;91.20;;;;;;5014065;28;20042;-78
2021/05/18 00:16:52;;;;;;;1.23;0.80;;;13.20;91.30;;;;;;5009587;28;20299;-78
2021/05/18 00:19:18;;;;;;;3.33;0.73;;;13.20;91.40;;;;;;5008820;28;20046;-76
2021/05/18 00:21:45;;;;;;;5.38;1.13;;;13.20;91.40;;;;;;5001676;28;20073;-76
2021/05/18 00:24:11;;;;;;;0.77;0.68;;;13.20;91.40;;;;;;5002601;28;20049;-77
2021/05/18 00:26:38;;;;;;;2.20;0.80;;;13.30;91.40;;;;;;5008865;28;20335;-77
2021/05/18 00:29:05;;;;;;;2.35;0.90;;;13.30;91.50;;;;;;5012072;28;20402;-77
2021/05/18 00:31:30;;;;;;;1.80;1.00;;;13.30;91.40;;;;;;5016159;28;20136;-77
2021/05/18 00:33:56;;;;;;;2.45;1.10;;;13.30;91.60;;;;;;5006904;28;20042;-77
2021/05/18 00:36:21;;;;;;;2.63;1.02;;;13.30;91.70;;;;;;4998905;28;20120;-77
2021/05/18 00:38:47;;;;;;;1.92;1.30;;;13.30;92.00;;;;;;5013852;28;20049;-77
2021/05/18 00:41:12;;;;;;;2.13;1.30;;;13.40;92.10;;;;;;5000846;28;20033;-77
2021/05/18 00:43:39;;;;;;;2.72;1.10;;;13.30;92.10;;;;;;5001314;28;20428;-77
2021/05/18 00:46:06;;;;;;;2.15;1.30;;;13.30;92.10;;;;;;5005023;28;20060;-77
2021/05/18 00:48:32;;;;;;;1.65;1.25;;;13.30;92.30;;;;;;4998581;28;20050;-77
2021/05/18 00:51:04;;;;;;;2.78;1.70;;;13.40;92.30;;;;;;5000073;28;20042;-77
2021/05/18 00:53:30;;;;;;;;;;;13.40;92.30;;;;;;5002753;28;20038;-78
2021/05/18 00:58:36;;;;;;;2.38;1.88;;;13.20;92.80;;;;;;5012214;28;20064;-78
2021/05/18 01:01:03;;;;;;;5.50;2.38;;;13.20;93.00;;;;;;5028154;28;20329;-77
2021/05/18 01:03:30;;;;;;;3.17;2.47;;;13.20;93.10;;;;;;5000890;28;20046;-79
2021/05/18 01:08:42;;;;;;;4.15;2.97;;;13.20;93.30;;;;;;5010676;28;20317;-78
2021/05/18 01:11:07;;;;;;;3.35;2.65;;;13.20;93.40;;;;;;5007531;28;20061;-78
2021/05/18 01:13:34;;;;;;;5.32;3.50;;;13.20;93.50;;;;;;5004076;28;20077;-78
2021/05/18 01:16:00;;;;;;;4.47;3.08;;;13.10;93.70;;;;;;5005128;28;20116;-77
2021/05/18 01:18:26;;;;;;;4.22;3.20;;;13.10;93.60;;;;;;5000083;28;20473;-78
2021/05/18 01:20:56;;;;;;;4.25;3.42;;;13.10;93.80;;;;;;5006670;28;20044;-77
2021/05/18 01:23:23;;;;;;;5.18;3.97;;;13.10;93.90;;;;;;5004806;28;20410;-77
2021/05/18 01:25:48;;;;;;;3.78;3.40;;;12.90;94.30;;;;;;5009701;28;20045;-77
2021/05/18 01:28:14;;;;;;;6.40;4.20;;;12.90;94.60;;;;;;5001031;28;20034;-77
2021/05/18 01:30:40;;;;;;;5.40;4.40;;;12.90;94.90;;;;;;4997247;28;20049;-77
2021/05/18 01:33:06;;;;;;;4.43;3.97;;;12.80;95.20;;;;;;5006495;28;20045;-78
2021/05/18 01:35:31;;;;;;;5.55;4.65;;;12.80;95.60;;;;;;5000170;28;20128;-79
2021/05/18 01:37:57;;;;;;;8.40;5.15;;;12.80;95.80;;;;;;5010768;28;20072;-78
2021/05/18 01:42:54;;;;;;;4.78;4.07;;;12.90;95.90;;;;;;5003218;28;20095;-80
2021/05/18 01:45:32;;;;;;;5.97;3.85;;;12.90;96.00;;;;;;5020664;28;20045;-81
2021/05/18 01:48:00;;;;;;;5.90;4.32;;;12.90;96.30;;;;;;5013465;28;20421;-81
2021/05/18 01:50:28;;;;;;;5.93;5.30;;;12.80;96.20;;;;;;5013370;28;20085;-79
2021/05/18 01:52:54;;;;;;;6.25;4.38;;;12.80;96.40;;;;;;5009073;28;20615;-80
2021/05/18 01:55:31;;;;;;;7.07;4.85;;;12.70;96.50;;;;;;5013395;28;20038;-80
2021/05/18 01:57:57;;;;;;;5.68;4.30;;;12.60;96.60;;;;;;5011905;28;20138;-80
2021/05/18 02:00:26;;;;;;;7.65;5.07;;;12.60;96.70;;;;;;5020518;28;20189;-80
2021/05/18 02:02:53;;;;;;;5.75;4.78;;;12.60;97.00;;;;;;5013420;28;20126;-81
2021/05/18 02:05:20;;;;;;;6.13;5.00;;;12.60;97.00;;;;;;5005203;28;20056;-80
2021/05/18 02:07:49;;;;;;;7.40;4.82;;;12.60;97.10;;;;;;5001917;28;20125;-81
2021/05/18 02:10:17;;;;;;;7.97;5.90;;;12.60;97.30;;;;;;5010053;28;20408;-80
2021/05/18 02:12:43;;;;;;;6.82;5.80;;;12.60;97.20;;;;;;5006823;28;20129;-81
2021/05/18 02:15:31;;;;;;;6.10;4.95;;;12.60;97.10;;;;;;5012865;28;20397;-81
2021/05/18 02:21:03;;;;;;;9.30;6.18;;;12.70;97.30;;;;;;5014817;28;20116;-79
2021/05/18 02:26:13;;;;;;;7.40;5.43;;;12.70;97.10;;;;;;5006780;28;20100;-81
2021/05/18 02:28:39;;;;;;;7.75;5.55;;;12.70;97.10;;;;;;5024447;28;20271;-80
2021/05/18 02:31:04;;;;;;;7.13;5.63;;;12.80;97.00;;;;;;5001561;28;20050;-80
2021/05/18 02:33:30;;;;;;;8.15;5.22;;;12.80;96.80;;;;;;5005095;28;20410;-80
2021/05/18 02:35:55;;;;;;;8.15;5.70;;;12.70;96.80;;;;;;5011343;28;20144;-80
2021/05/18 02:38:21;;;;;;;7.03;5.65;;;12.80;96.90;;;;;;5015150;28;20095;-80
2021/05/18 02:40:46;;;;;;;6.70;5.53;;;12.80;97.10;;;;;;4998126;28;20043;-80
2021/05/18 02:43:16;;;;;;;6.72;5.00;;;12.80;96.80;;;;;;5012993;28;20063;-80
2021/05/18 02:46:04;;;;;;;8.30;5.30;;;12.90;96.60;;;;;;5006224;28;20046;-80
2021/05/18 02:51:14;;;;;;;8.45;5.72;;;12.90;96.70;;;;;;4996912;28;20045;-80
2021/05/18 02:53:40;;;;;;;10.05;6.25;;;12.80;97.00;;;;;;5004357;28;20649;-80
2021/05/18 02:56:43;;;;;;;8.38;5.93;;;12.80;96.50;;;;;;4997095;28;20050;-80
2021/05/18 02:59:07;;;;;;;7.60;5.93;;;12.80;96.60;;;;;;5007888;28;20034;-81
2021/05/18 03:01:33;;;;;;;8.38;5.22;;;12.80;96.50;;;;;;4999284;28;20050;-81
2021/05/18 03:03:59;;;;;;;7.85;5.30;;;12.80;96.70;;;;;;5013385;28;20136;-81
2021/05/18 03:06:25;;;;;;;8.00;5.55;;;12.80;96.60;;;;;;5013748;28;20537;-81
2021/05/18 03:08:51;;;;;;;7.00;6.30;;;12.80;96.60;;;;;;5006012;28;20413;-81
2021/05/18 03:11:17;;;;;;;10.40;5.95;;;12.80;96.50;;;;;;5017973;28;20034;-80
2021/05/18 03:13:43;;;;;;;9.20;5.53;;;12.80;96.80;;;;;;5002661;28;20066;-80
2021/05/18 03:16:08;;;;;;;7.90;5.78;;;12.80;96.40;;;;;;5021303;28;20480;-80
2021/05/18 03:18:34;;;;;;;7.28;5.35;;;12.70;96.50;;;;;;5013931;28;20030;-81
2021/05/18 03:21:00;;;;;;;6.57;5.10;;;12.70;96.40;;;;;;5006570;28;20061;-80
2021/05/18 03:23:26;;;;;;;9.35;6.65;;;12.70;96.40;;;;;;5013666;28;20049;-80
2021/05/18 03:25:51;;;;;;;9.38;6.63;;;12.50;96.40;;;;;;5013673;28;20049;-80
2021/05/18 03:28:17;;;;;;;6.15;5.32;;;12.60;96.50;;;;;;5006654;28;20361;-80
2021/05/18 03:35:52;;;;;;;12.77;6.40;;;12.50;96.60;;;;;;5006690;28;20313;-79
2021/05/18 03:38:35;;;;;;;8.65;5.95;;;12.50;96.40;;;;;;5014688;28;20042;-79
2021/05/18 03:41:07;;;;;;;8.55;6.47;;;12.50;96.40;;;;;;5006242;28;20117;-80
2021/05/18 04:04:57;;;;;;;8.55;7.57;;;12.80;95.90;;;;;;5006577;28;20049;-80
2021/05/18 04:12:51;;;;;;;10.55;7.57;;;12.70;95.80;;;;;;5016134;28;20124;-80
2021/05/18 04:18:12;;;;;;;10.13;7.95;;;12.70;95.80;;;;;;5017797;28;20041;-79
2021/05/18 04:24:14;;;;;;;9.10;6.68;;;12.70;95.60;;;;;;4997308;28;20286;-79
2021/05/18 04:48:26;;;;;;;7.88;5.93;;;12.70;95.00;;;;;;5003207;28;20488;-79
2021/05/18 04:59:01;;;;;;;8.43;5.75;;;12.70;94.80;;;;;;5013830;28;20041;-78
2021/05/18 05:02:06;;;;;;;8.25;5.10;;;12.70;95.20;;;;;;5002037;28;20711;-80
2021/05/18 05:07:16;;;;;;;6.43;5.00;;;12.60;95.10;;;;;;5000285;28;20716;-81
2021/05/18 05:09:45;;;;;;;8.60;5.82;;;12.50;95.40;;;;;;5008858;28;20038;-80
2021/05/18 05:14:49;;;;;;;6.10;4.90;;;12.60;95.30;;;;;;5011499;28;20052;-81
2021/05/18 05:17:14;;;;;;;5.47;4.75;;;12.70;95.20;;;;;;5006537;28;20030;-79
2021/05/18 05:19:40;;;;;;;6.80;5.15;;;12.70;95.20;;;;;;5029139;28;20594;-79
2021/05/18 05:22:06;;;;;;;9.60;5.45;;;12.70;94.90;;;;;;4996498;28;20043;-80
2021/05/18 05:24:33;;;;;;;7.45;4.75;;;12.70;94.70;;;;;;5011250;28;20409;-79
2021/05/18 05:26:59;;;;;;;6.78;4.72;;;12.70;94.80;;;;;;5011752;28;20060;-79
2021/05/18 05:29:25;;;;;;;8.15;5.13;;;12.70;94.70;;;;;;5005258;28;20077;-79
2021/05/18 05:31:52;;;;;;;8.55;4.85;;;12.70;94.60;;;;;;5013063;28;20057;-79
2021/05/18 05:34:18;;;;;;;6.35;4.53;;;12.70;94.50;;;;;;5013726;28;20496;-79
2021/05/18 05:36:45;;;;;;;11.18;5.63;;;12.70;94.30;;;;;;5013173;28;20133;-79
2021/05/18 05:39:19;;;;;;;6.15;4.18;;;12.70;94.50;;;;;;5013818;28;20050;-78
2021/05/18 05:41:45;;;;;;;8.35;4.78;;;12.70;94.50;;;;;;5014464;28;20052;-79
2021/05/18 05:44:11;;;;;;;9.00;5.47;;;12.70;94.30;;;;;;5010892;28;20037;-79
2021/05/18 05:46:37;;;;;;;7.10;5.10;;;12.80;94.10;;;;;;5008736;28;20075;-79
2021/05/18 05:49:03;;;;;;;5.22;4.35;;;12.80;94.10;;;;;;5004804;28;20041;-80
2021/05/18 05:51:28;;;;;;;5.32;4.18;;;12.80;93.90;;;;;;5006633;28;20161;-80
2021/05/18 05:53:58;;;;;;;8.85;5.30;;;12.80;94.00;;;;;;5024191;28;20388;-79
2021/05/18 05:56:23;;;;;;;6.38;4.22;;;12.90;93.60;;;;;;5011092;28;20046;-79
2021/05/18 05:58:49;;;;;;;6.32;4.78;;;13.00;93.50;;;;;;5002793;28;20595;-79
2021/05/18 06:01:16;;;;;;;6.47;4.90;;;13.00;93.40;;;;;;5011970;28;20053;-80
2021/05/18 06:03:42;;;;;;;24.10;6.22;;;13.00;93.50;;;;;;5008843;28;20444;-78
2021/05/18 06:06:07;;;;;;;8.65;4.88;;;13.00;93.40;;;;;;5017773;28;20091;-79
2021/05/18 06:08:38;;;;;;;9.93;4.53;;;13.10;93.20;;;;;;5003646;28;20137;-79
2021/05/18 06:43:52;;;;;;;7.82;4.70;;;13.30;91.90;;;;;;5017211;28;20108;-78
2021/05/18 06:46:25;;;;;;;6.20;3.60;;;13.30;92.00;;;;;;5012684;28;20073;-79
2021/05/18 06:48:58;;;;;;;10.20;4.00;;;13.30;92.30;;;;;;5008529;28;20042;-78
2021/05/18 06:51:24;;;;;;;7.93;4.53;;;13.40;92.00;;;;;;5005637;28;20054;-79
2021/05/18 06:53:50;;;;;;;6.68;4.03;;;13.50;91.60;;;;;;5014000;28;20764;-80
2021/05/18 06:56:16;;;;;;;5.00;3.60;;;13.60;91.00;;;;;;5016092;28;20060;-79
2021/05/18 07:01:08;;;;;;;7.30;3.75;;;13.80;91.00;;;;;;5001546;28;20069;-77
2021/05/18 07:03:39;;;;;;;5.65;3.28;;;13.90;91.10;;;;;;5013787;28;20045;-78
2021/05/18 07:11:17;;;;;;;6.13;3.53;;;14.20;90.10;;;;;;5014127;28;20041;-78
2021/05/18 07:13:43;;;;;;;5.95;2.92;;;14.10;89.70;;;;;;5013702;28;20409;-77
2021/05/18 07:16:08;;;;;;;5.95;3.22;;;14.30;90.00;;;;;;5011426;28;20034;-77
2021/05/18 07:18:34;;;;;;;3.83;2.90;;;14.30;90.00;;;;;;5004590;28;20042;-77
2021/05/18 07:21:00;;;;;;;5.07;3.03;;;14.50;90.10;;;;;;4999499;28;20037;-78
2021/05/18 07:23:26;;;;;;;3.22;2.80;;;14.70;90.00;;;;;;5014644;28;20401;-77
2021/05/18 07:25:52;;;;;;;4.30;3.00;;;14.90;86.30;;;;;;5018516;28;20061;-77
2021/05/18 07:28:19;;;;;;;6.55;2.78;;;15.00;86.10;;;;;;5005089;28;20042;-78
2021/05/18 07:30:46;;;;;;;3.83;2.78;;;15.10;87.00;;;;;;5008538;28;20325;-77
2021/05/18 07:33:12;;;;;;;5.85;3.03;;;15.20;85.50;;;;;;5015835;28;20041;-76
2021/05/18 07:35:37;;;;;;;4.30;3.15;;;15.30;85.60;;;;;;5011688;28;20601;-77
2021/05/18 07:38:04;;;;;;;5.18;2.42;;;15.40;84.70;;;;;;5021046;28;20034;-76
2021/05/18 07:40:31;;;;;;;8.70;3.25;;;15.50;85.20;;;;;;5011996;28;20038;-77
2021/05/18 07:42:57;;;;;;;6.80;3.28;;;15.70;85.70;;;;;;5010745;28;20477;-78
2021/05/18 07:45:28;;;;;;;3.15;2.67;;;15.90;85.30;;;;;;5007362;28;20140;-78
2021/05/18 07:47:59;;;;;;;6.15;2.88;;;16.10;84.20;;;;;;5009022;28;20042;-78
2021/05/18 07:50:39;;;;;;;3.28;1.50;;;16.20;82.90;;;;;;5015230;28;20440;-79
2021/05/18 08:06:45;;;;;;;8.15;2.88;;;16.30;78.80;;;;;;5008639;28;20762;-77
2021/05/18 08:09:10;;;;;;;5.63;2.08;;;16.20;78.20;;;;;;4995969;28;20121;-77
2021/05/18 08:11:36;;;;;;;4.55;2.05;;;16.00;78.10;;;;;;4999619;28;20045;-78
2021/05/18 08:14:02;;;;;;;7.13;2.80;;;16.00;80.30;;;;;;5016151;28;20049;-77
2021/05/18 09:33:37;;;;;;;8.15;4.05;;;17.20;73.80;;;;;;5008977;28;20387;-77
2021/05/18 10:15:41;;;;;;;8.55;3.25;;;17.10;75.80;;;;;;5006186;28;20072;-78
2021/05/18 10:37:41;;;;;;;3.33;2.08;;;18.20;70.00;;;;;;5010205;28;20041;-79
2021/05/18 10:40:15;;;;;;;2.67;1.50;;;18.40;67.40;;;;;;5006284;28;20033;-78
2021/05/18 10:43:04;;;;;;;4.38;2.10;;;18.40;67.40;;;;;;5011927;28;20038;-76
2021/05/18 10:45:55;;;;;;;3.85;2.40;;;18.40;69.30;;;;;;5013239;28;20373;-77
2021/05/18 10:48:24;;;;;;;8.20;3.00;;;18.20;68.30;;;;;;4996906;28;20050;-78
2021/05/18 10:50:50;;;;;;;6.20;3.28;;;18.10;72.20;;;;;;5012262;28;20080;-78
2021/05/18 10:53:23;;;;;;;3.95;3.00;;;17.90;73.10;;;;;;5010538;28;20706;-78
2021/05/18 10:56:07;;;;;;;5.97;2.63;;;17.80;73.30;;;;;;5010970;28;20100;-78
2021/05/18 10:58:34;;;;;;;5.63;2.97;;;17.80;75.90;;;;;;5012335;28;20034;-78
2021/05/18 11:01:01;;;;;;;9.27;3.63;;;17.80;75.50;;;;;;5013429;28;20037;-78
2021/05/18 11:03:26;;;;;;;4.25;2.38;;;18.00;76.40;;;;;;5013470;28;20041;-78
2021/05/18 11:05:52;;;;;;;5.32;1.70;;;18.30;74.10;;;;;;5014746;28;20052;-78
2021/05/18 11:08:18;;;;;;;4.82;1.73;;;18.60;66.40;;;;;;5011453;28;20037;-78
2021/05/18 11:10:45;;;;;;;3.08;1.15;;;18.80;66.20;;;;;;5005655;28;20126;-79
2021/05/18 11:13:11;;;;;;;2.58;1.67;;;19.00;66.70;;;;;;5003604;28;20042;-80
2021/05/18 11:15:37;;;;;;;3.05;1.58;;;19.00;64.20;;;;;;4993019;28;20077;-79
2021/05/18 11:18:05;;;;;;;7.90;2.58;;;18.90;64.80;;;;;;5012809;28;20042;-79
2021/05/18 11:23:29;;;;;;;5.70;2.30;;;18.40;68.60;;;;;;5013816;28;20092;-79
2021/05/18 11:26:03;;;;;;;27.05;3.42;;;18.40;68.30;;;;;;5013403;28;20048;-77
2021/05/18 11:28:36;;;;;;;4.45;1.98;;;18.50;69.40;;;;;;5008856;28;20076;-78
2021/05/18 11:31:05;;;;;;;4.82;2.78;;;18.60;66.60;;;;;;5015166;28;20053;-78
2021/05/18 11:33:33;;;;;;;6.47;3.50;;;18.70;69.60;;;;;;5015849;28;20041;-78
2021/05/18 11:36:24;;;;;;;17.10;4.00;;;18.70;68.30;;;;;;5016815;28;20278;-78
2021/05/18 11:38:52;;;;;;;24.95;4.03;;;18.80;68.30;;;;;;5000807;28;20045;-78
2021/05/18 11:41:19;;;;;;;6.22;2.92;;;18.90;67.00;;;;;;5005958;28;20069;-80
2021/05/18 11:43:48;;;;;;;5.13;2.17;;;18.90;67.10;;;;;;5015475;28;20041;-78
2021/05/18 11:46:14;;;;;;;3.70;2.45;;;19.10;67.20;;;;;;5010923;28;20046;-79
2021/05/18 11:48:43;;;;;;;6.15;2.83;;;19.40;65.20;;;;;;5007720;28;20069;-79
2021/05/18 11:51:12;;;;;;;9.88;3.30;;;19.60;66.60;;;;;;5016279;28;20038;-77
2021/05/18 11:53:52;;;;;;;4.60;2.45;;;19.60;64.10;;;;;;5016586;28;20056;-78
2021/05/18 11:56:26;;;;;;;4.72;2.58;;;19.70;66.70;;;;;;5017138;28;20030;-77
2021/05/18 11:59:17;;;;;;;3.88;2.88;;;19.60;65.30;;;;;;5016413;28;20293;-76
2021/05/18 12:01:43;;;;;;;12.25;4.25;;;19.80;66.20;;;;;;5016285;28;20069;-78
2021/05/18 12:04:16;;;;;;;8.57;3.25;;;19.90;67.80;;;;;;5016730;28;20065;-78
2021/05/18 12:07:03;;;;;;;21.23;6.00;;;20.10;66.10;;;;;;5004697;28;20108;-78
2021/05/18 12:09:32;;;;;;;5.35;2.50;;;20.30;66.50;;;;;;5016393;28;20037;-77
2021/05/18 12:11:59;;;;;;;3.05;2.28;;;20.40;65.10;;;;;;5004207;28;20136;-78
2021/05/18 12:14:26;;;;;;;5.00;2.15;;;20.50;65.30;;;;;;5016767;28;20050;-78
2021/05/18 12:16:52;;;;;;;4.63;1.95;;;20.50;64.10;;;;;;5015775;28;20034;-78
2021/05/18 12:19:20;;;;;;;7.32;3.10;;;20.60;61.30;;;;;;5016065;28;20034;-78
2021/05/18 12:21:52;;;;;;;7.70;2.63;;;20.50;63.50;;;;;;5016218;28;20077;-77
2021/05/18 12:24:19;;;;;;;7.85;2.10;;;20.40;63.20;;;;;;5012129;28;20068;-77
2021/05/18 12:26:47;;;;;;;7.70;2.15;;;20.40;62.00;;;;;;4997300;28;20057;-77
2021/05/18 12:29:25;;;;;;;3.33;1.70;;;20.60;62.80;;;;;;5002455;28;20041;-77
2021/05/18 12:31:51;;;;;;;4.75;2.00;;;20.70;60.20;;;;;;5015331;28;20166;-77
2021/05/18 12:34:30;;;;;;;2.90;1.70;;;20.70;59.80;;;;;;5016172;28;20042;-77
2021/05/18 12:36:56;;;;;;;4.10;2.20;;;20.60;61.40;;;;;;5015478;28;20100;-77
2021/05/18 12:39:22;;;;;;;3.70;1.80;;;20.50;62.40;;;;;;5015448;28;20590;-77
2021/05/18 12:42:00;;;;;;;2.05;1.67;;;20.50;63.30;;;;;;5015388;28;20129;-77
2021/05/18 12:44:33;;;;;;;4.38;1.80;;;20.40;61.90;;;;;;5016143;28;20041;-76
2021/05/18 12:47:00;;;;;;;;;;;20.20;62.70;;;;;;5016301;28;20466;-77
2021/05/18 12:49:30;;;;;;;2.75;2.00;;;20.00;62.90;;;;;;5015387;28;19913;-77
2021/05/18 12:52:07;;;;;;;4.72;2.40;;;19.90;63.10;;;;;;5014404;28;20104;-78
2021/05/18 12:54:56;;;;;;;3.72;2.40;;;19.90;64.50;;;;;;5015870;28;20046;-77
2021/05/18 12:57:24;;;;;;;5.53;2.80;;;19.90;63.50;;;;;;5014381;28;20421;-77
2021/05/18 13:00:13;;;;;;;3.75;2.08;;;19.90;62.60;;;;;;5014679;28;20152;-77
2021/05/18 13:02:45;;;;;;;6.72;2.10;;;20.00;63.40;;;;;;4998635;28;20049;-77
2021/05/18 13:05:17;;;;;;;4.25;1.88;;;20.00;64.00;;;;;;5016035;28;20061;-77
2021/05/18 13:07:44;;;;;;;2.88;1.55;;;19.90;63.50;;;;;;5018895;28;20037;-77
2021/05/18 13:10:19;;;;;;;3.90;2.72;;;19.80;63.80;;;;;;5018038;28;20038;-77
2021/05/18 13:12:45;;;;;;;5.15;2.30;;;19.90;64.40;;;;;;5015587;28;20104;-77
2021/05/18 13:15:19;;;;;;;3.63;2.05;;;20.00;62.50;;;;;;5016123;28;20382;-77
2021/05/18 13:17:56;;;;;;;4.10;1.77;;;20.10;61.50;;;;;;5015423;28;20042;-77
2021/05/18 13:20:22;;;;;;;4.05;1.38;;;20.20;62.90;;;;;;4999891;28;20088;-74
2021/05/18 13:22:55;;;;;;;2.97;1.77;;;20.40;63.20;;;;;;5020645;28;20077;-75
2021/05/18 13:28:05;;;;;;;3.13;2.10;;;20.30;61.90;;;;;;5000607;28;20555;-76
2021/05/18 13:30:32;;;;;;;4.72;1.80;;;20.10;60.80;;;;;;5005952;28;20065;-76
2021/05/18 13:33:00;;;;;;;3.53;2.38;;;20.00;62.70;;;;;;5009733;28;20120;-76
2021/05/18 13:35:28;;;;;;;2.25;1.85;;;20.10;61.90;;;;;;5011171;28;20091;-76
2021/05/18 13:37:54;;;;;;;2.75;1.73;;;20.10;62.80;;;;;;5002131;28;20137;-76
2021/05/18 13:40:20;;;;;;;4.28;2.03;;;20.10;62.60;;;;;;5015445;28;20120;-76
2021/05/18 13:42:51;;;;;;;5.10;1.65;;;20.20;61.80;;;;;;5005613;28;20056;-76
2021/05/18 13:45:17;;;;;;;3.45;1.67;;;20.20;61.80;;;;;;5012035;28;20037;-76
2021/05/18 13:47:43;;;;;;;2.13;1.52;;;20.40;60.30;;;;;;5011537;28;20379;-76
2021/05/18 13:50:09;;;;;;;3.22;1.42;;;20.30;61.70;;;;;;4996472;28;20038;-76
2021/05/18 13:52:35;;;;;;;2.65;1.58;;;20.10;59.50;;;;;;4995455;28;20169;-75
2021/05/18 13:55:00;;;;;;;6.35;1.40;;;20.00;60.80;;;;;;5013840;28;20124;-76
2021/05/18 13:57:26;;;;;;;3.65;2.10;;;19.80;60.30;;;;;;5015359;28;20393;-76
2021/05/18 13:59:51;;;;;;;4.47;1.52;;;19.70;59.30;;;;;;5015381;28;20096;-76
2021/05/18 14:02:17;;;;;;;2.75;1.75;;;19.50;60.30;;;;;;5016314;28;20045;-75
2021/05/18 14:04:43;;;;;;;3.00;1.40;;;19.40;62.50;;;;;;5016629;28;20038;-75
2021/05/18 14:10:05;;;;;;;3.33;1.80;;;19.60;63.30;;;;;;5016298;28;20034;-75
2021/05/18 14:12:30;;;;;;;3.35;1.60;;;19.90;64.70;;;;;;5015718;28;20115;-76
2021/05/18 14:14:56;;;;;;;3.15;2.05;;;20.20;62.40;;;;;;5015596;28;20304;-76
2021/05/18 14:17:21;;;;;;;3.60;1.50;;;20.50;60.90;;;;;;5016144;28;20042;-76
2021/05/18 14:19:47;;;;;;;2.90;1.48;;;20.70;58.10;;;;;;5016257;28;20037;-75
2021/05/18 14:22:13;;;;;;;1.88;1.23;;;20.70;56.40;;;;;;5016262;28;20417;-75
2021/05/18 14:25:04;;;;;;;2.03;1.02;;;20.80;56.60;;;;;;5015531;28;20045;-76
2021/05/18 14:27:26;;;;;;;4.45;1.13;;;20.70;58.50;;;;;;5006618;28;20038;-75
2021/05/18 14:29:53;;;;;;;1.70;1.00;;;20.70;57.00;;;;;;5008591;28;20052;-75
2021/05/18 14:32:19;;;;;;;1.27;0.75;;;20.60;56.60;;;;;;5015165;28;20095;-75
2021/05/18 14:34:44;;;;;;;2.10;0.80;;;20.40;56.40;;;;;;5015211;28;20159;-75
2021/05/18 14:37:11;;;;;;;1.63;0.88;;;20.30;57.60;;;;;;5016274;28;20457;-75
2021/05/18 14:45:07;;;;;;;4.00;1.00;;;20.40;59.70;;;;;;5016287;28;20037;-75
2021/05/18 14:55:53;;;;;;;1.63;0.80;;;20.50;57.90;;;;;;5003330;28;20349;-76
2021/05/18 14:58:18;;;;;;;2.13;0.88;;;20.40;57.90;;;;;;5009366;28;20049;-76
2021/05/18 15:00:44;;;;;;;1.90;0.88;;;20.30;57.40;;;;;;5014721;28;20067;-76
2021/05/18 15:03:10;;;;;;;3.45;1.23;;;20.30;58.20;;;;;;4999142;28;20129;-76
2021/05/18 15:05:36;;;;;;;4.15;1.25;;;20.20;58.00;;;;;;5001176;28;20041;-76
2021/05/18 15:08:02;;;;;;;2.67;1.30;;;20.00;59.00;;;;;;4998975;28;20050;-76
2021/05/18 15:10:28;;;;;;;3.33;1.38;;;19.80;59.30;;;;;;5000046;28;20582;-76
2021/05/18 15:12:54;;;;;;;4.10;1.10;;;19.70;59.60;;;;;;4998810;28;20053;-76
2021/05/18 15:15:20;;;;;;;2.83;1.50;;;19.70;60.00;;;;;;5000083;28;20100;-76
2021/05/18 15:17:46;;;;;;;2.88;1.25;;;19.60;60.90;;;;;;5000279;28;20057;-75
2021/05/18 15:20:13;;;;;;;2.60;1.70;;;19.60;61.00;;;;;;5000982;28;20034;-76
2021/05/18 15:22:39;;;;;;;3.22;1.00;;;19.50;60.90;;;;;;4999536;28;20145;-75
2021/05/18 15:25:06;;;;;;;1.30;0.70;;;19.30;63.00;;;;;;4998777;28;20125;-75
2021/05/18 15:27:31;;;;;;;1.98;0.60;;;18.80;64.90;;;;;;5010794;28;20128;-75
2021/05/18 15:29:57;;;;;;;2.08;0.90;;;18.50;67.10;;;;;;5019071;28;20117;-76
2021/05/18 15:32:22;;;;;;;5.13;1.30;;;18.30;67.40;;;;;;5018731;28;20053;-75
2021/05/18 15:34:48;;;;;;;1.65;0.70;;;18.10;68.50;;;;;;5018561;28;20046;-75
2021/05/18 15:37:14;;;;;;;3.83;1.27;;;17.80;68.40;;;;;;5018846;28;20323;-74
2021/05/18 15:39:42;;;;;;;1.08;0.70;;;17.40;69.10;;;;;;5018695;28;20041;-75
2021/05/18 15:42:08;;;;;;;1.17;0.50;;;17.30;70.70;;;;;;5019207;28;20354;-76
2021/05/18 15:44:34;;;;;;;1.10;0.57;;;17.30;70.20;;;;;;5017892;28;20144;-75
2021/05/18 15:47:00;;;;;;;1.02;0.70;;;17.30;70.90;;;;;;5018749;28;20112;-75
2021/05/18 15:49:28;;;;;;;1.67;0.80;;;17.30;69.40;;;;;;5017240;28;20061;-75
2021/05/18 15:51:54;;;;;;;1.17;0.70;;;17.30;70.80;;;;;;5014773;28;20047;-75
2021/05/18 15:54:19;;;;;;;1.20;0.90;;;17.30;71.40;;;;;;5007331;28;20038;-75
2021/05/18 15:56:45;;;;;;;1.00;0.77;;;17.20;71.60;;;;;;5009644;28;20034;-75
2021/05/18 15:59:12;;;;;;;1.05;0.82;;;17.10;71.90;;;;;;5011458;28;20121;-75
2021/05/18 16:01:38;;;;;;;1.63;0.77;;;17.00;73.60;;;;;;5006176;28;20089;-74
2021/05/18 16:04:05;;;;;;;1.95;1.10;;;17.00;73.40;;;;;;5009505;28;20069;-74
2021/05/18 16:06:32;;;;;;;2.28;1.10;;;17.00;74.20;;;;;;5015611;28;20435;-74
2021/05/18 16:08:58;;;;;;;1.60;1.00;;;17.00;74.70;;;;;;5007400;28;20038;-75
2021/05/18 16:11:24;;;;;;;2.58;0.85;;;17.10;74.80;;;;;;5009704;28;20477;-75
2021/05/18 16:13:49;;;;;;;0.80;0.73;;;17.30;75.50;;;;;;5015394;28;20077;-75
2021/05/18 16:16:16;;;;;;;1.27;0.70;;;17.50;75.10;;;;;;5017298;28;20129;-76
2021/05/18 16:18:42;;;;;;;1.55;0.90;;;17.70;73.30;;;;;;5000289;28;20026;-76
2021/05/18 16:21:10;;;;;;;1.95;0.70;;;17.90;71.10;;;;;;5007537;28;20410;-76
2021/05/18 16:23:37;;;;;;;0.70;0.63;;;18.00;69.10;;;;;;5014174;28;20042;-76
2021/05/18 16:26:05;;;;;;;2.67;0.70;;;18.00;69.20;;;;;;5005126;28;20052;-76
2021/05/18 16:28:31;;;;;;;1.08;0.70;;;17.90;69.60;;;;;;4999955;28;20301;-76
2021/05/18 16:30:58;;;;;;;1.05;0.70;;;17.90;70.90;;;;;;5000586;28;20046;-76
2021/05/18 16:33:24;;;;;;;1.35;0.55;;;17.90;69.40;;;;;;5004449;28;20038;-76
2021/05/18 16:35:50;;;;;;;1.77;0.50;;;17.70;68.80;;;;;;5000813;28;20363;-76
2021/05/18 16:38:15;;;;;;;0.95;0.52;;;17.50;67.80;;;;;;5002987;28;20049;-76
2021/05/18 16:40:42;;;;;;;1.90;0.60;;;17.40;68.70;;;;;;5021875;28;20053;-76
2021/05/18 16:43:07;;;;;;;1.58;0.60;;;17.30;70.30;;;;;;5010773;28;20073;-76
2021/05/18 16:45:34;;;;;;;1.95;0.77;;;17.20;70.70;;;;;;5005953;28;20046;-75
2021/05/18 16:48:01;;;;;;;0.63;0.60;;;17.10;71.60;;;;;;5006250;28;20081;-76
2021/05/18 16:50:26;;;;;;;1.83;0.70;;;17.00;73.20;;;;;;5004819;28;20412;-76
2021/05/18 16:52:51;;;;;;;0.82;0.75;;;16.90;74.10;;;;;;5008976;28;20073;-76
2021/05/18 16:55:17;;;;;;;1.40;0.47;;;16.80;74.00;;;;;;5006838;28;20037;-75
2021/05/18 16:57:42;;;;;;;4.40;0.60;;;16.80;75.60;;;;;;5006836;28;20037;-75
2021/05/18 17:00:11;;;;;;;2.33;0.88;;;16.70;76.70;;;;;;5008531;28;20113;-77
2021/05/18 17:02:36;;;;;;;1.08;0.98;;;16.60;77.90;;;;;;5001102;28;20052;-76
2021/05/18 17:05:04;;;;;;;1.35;0.77;;;16.60;79.80;;;;;;5004250;28;20309;-76
2021/05/18 17:07:29;;;;;;;1.05;0.60;;;16.60;80.50;;;;;;5010211;28;20072;-77
2021/05/18 17:09:55;;;;;;;2.17;0.95;;;16.50;80.80;;;;;;5009014;28;20393;-76
2021/05/18 17:12:21;;;;;;;1.40;0.77;;;16.50;82.40;;;;;;5003043;28;20101;-76
2021/05/18 17:14:48;;;;;;;3.83;1.10;;;16.50;84.00;;;;;;4999822;28;20038;-79
2021/05/18 17:17:14;;;;;;;1.00;0.60;;;16.40;85.90;;;;;;5001233;28;20404;-77
2021/05/18 17:19:44;;;;;;;2.35;0.90;;;16.40;83.40;;;;;;5003238;28;20060;-78
2021/05/18 17:22:15;;;;;;;2.03;1.05;;;16.40;83.50;;;;;;4998272;28;20408;-78
2021/05/18 17:24:41;;;;;;;1.20;0.75;;;16.40;84.10;;;;;;5010330;28;20045;-77
2021/05/18 17:27:06;;;;;;;3.00;1.00;;;16.40;83.80;;;;;;5009953;28;20056;-77
2021/05/18 17:29:33;;;;;;;2.85;1.38;;;16.40;84.00;;;;;;4995444;28;20115;-82
2021/05/18 17:31:59;;;;;;;0.80;0.70;;;16.40;84.20;;;;;;5005816;28;20048;-78
2021/05/18 17:34:26;;;;;;;2.03;0.82;;;16.30;81.00;;;;;;5001919;28;20045;-79
2021/05/18 17:36:52;;;;;;;2.90;0.88;;;16.20;79.90;;;;;;5012219;28;20116;-78
2021/05/18 17:39:20;;;;;;;1.98;1.30;;;16.10;80.40;;;;;;5002296;28;20034;-79
2021/05/18 17:41:46;;;;;;;2.10;1.30;;;16.00;82.00;;;;;;5006784;28;20029;-79
2021/05/18 17:44:12;;;;;;;2.40;1.60;;;15.90;81.90;;;;;;5012504;28;20042;-77
2021/05/18 17:46:39;;;;;;;2.83;2.42;;;15.90;82.80;;;;;;5005714;28;20049;-77
2021/05/18 17:49:05;;;;;;;2.28;1.98;;;15.80;84.00;;;;;;5005078;28;20045;-79
2021/05/18 17:51:35;;;;;;;3.38;1.40;;;15.80;83.20;;;;;;5004079;28;20042;-78
2021/05/18 17:54:03;;;;;;;2.10;1.60;;;15.70;83.50;;;;;;5006351;28;20052;-77
2021/05/18 17:56:29;;;;;;;2.15;1.50;;;15.70;83.80;;;;;;5003681;28;20069;-78
2021/05/18 17:58:55;;;;;;;4.90;1.83;;;15.70;84.20;;;;;;4996533;28;20038;-77